createdAt,value
2023-01-29T00:01:40.348Z,8.06
2023-01-29T00:06:43.159Z,8.11
2023-01-29T00:11:45.580Z,8.13
2023-01-29T00:16:49.050Z,8.14
2023-01-29T00:21:52.009Z,8.18
2023-01-29T00:26:56.554Z,8.20
2023-01-29T00:32:02.502Z,8.22
2023-01-29T00:37:09.023Z,8.24
2023-01-29T00:42:30.887Z,8.27
2023-01-29T00:52:57.699Z,8.30
2023-01-29T00:58:07.719Z,8.31
2023-01-29T01:08:48.669Z,8.29
2023-01-29T01:13:55.151Z,8.28
2023-01-29T01:19:03.529Z,8.26
2023-01-29T01:24:08.146Z,8.24
2023-01-29T01:29:12.652Z,8.22
2023-01-29T01:34:14.593Z,8.20
2023-01-29T01:39:25.278Z,8.20
2023-01-29T01:45:08.836Z,8.21
2023-01-29T01:50:44.092Z,8.21
2023-01-29T01:55:52.037Z,8.21
2023-01-29T02:05:35.291Z,8.22
2023-01-29T02:10:49.059Z,8.23
2023-01-29T02:15:54.505Z,8.24
2023-01-29T02:21:26.372Z,8.26
2023-01-29T02:26:54.820Z,8.26
2023-01-29T02:32:03.886Z,8.29
2023-01-29T02:37:15.084Z,8.30
2023-01-29T02:42:31.422Z,8.29
2023-01-29T02:48:12.389Z,8.24
2023-01-29T02:53:38.338Z,8.20
2023-01-29T02:59:13.670Z,8.15
2023-01-29T03:04:25.878Z,8.13
2023-01-29T03:09:41.690Z,8.12
2023-01-29T03:15:12.038Z,8.11
2023-01-29T03:20:32.122Z,8.14
2023-01-29T03:26:06.153Z,8.15
2023-01-29T03:31:36.236Z,8.14
2023-01-29T03:36:59.718Z,8.16
2023-01-29T03:42:47.972Z,8.17
2023-01-29T03:48:16.686Z,8.14
2023-01-29T03:53:58.484Z,8.09
2023-01-29T03:59:27.876Z,8.05
2023-01-29T04:04:59.229Z,8.01
2023-01-29T04:10:12.015Z,7.96
2023-01-29T04:15:22.231Z,7.92
2023-01-29T04:20:28.650Z,7.92
2023-01-29T04:25:53.932Z,7.93
2023-01-29T04:31:18.835Z,7.85
2023-01-29T04:36:36.079Z,7.80
2023-01-29T04:41:50.241Z,7.77
2023-01-29T04:47:13.518Z,7.73
2023-01-29T04:52:39.881Z,7.70
2023-01-29T04:57:55.381Z,7.62
2023-01-29T05:12:30.636Z,7.53
2023-01-29T05:32:14.261Z,7.54
2023-01-29T05:37:17.142Z,7.50
2023-01-29T05:42:20.140Z,7.52
2023-01-29T05:47:22.006Z,7.52
2023-01-29T05:52:23.855Z,7.51
2023-01-29T05:57:25.743Z,7.49
2023-01-29T06:02:32.365Z,7.43
2023-01-29T06:07:34.349Z,7.38
2023-01-29T06:12:37.585Z,7.35
2023-01-29T06:17:39.392Z,7.28
2023-01-29T06:22:41.487Z,7.23
2023-01-29T06:27:45.874Z,7.23
2023-01-29T06:32:47.679Z,7.21
2023-01-29T06:37:49.516Z,7.21
2023-01-29T06:42:51.379Z,7.18
2023-01-29T06:48:01.397Z,7.13
2023-01-29T06:53:03.497Z,7.10
2023-01-29T06:58:07.270Z,7.05
2023-01-29T07:03:10.641Z,7.01
2023-01-29T07:08:12.449Z,6.96
2023-01-29T07:13:14.534Z,6.93
2023-01-29T07:18:16.453Z,6.89
2023-01-29T07:23:18.694Z,6.80
2023-01-29T07:28:20.872Z,6.75
2023-01-29T07:33:22.677Z,6.71
2023-01-29T07:38:28.519Z,6.67
2023-01-29T07:43:31.309Z,6.62
2023-01-29T07:48:33.334Z,6.60
2023-01-29T07:53:38.174Z,6.62
2023-01-29T07:58:39.992Z,6.60
2023-01-29T08:03:41.877Z,6.69
2023-01-29T08:08:43.674Z,6.73
2023-01-29T08:13:46.738Z,8.12
2023-01-29T08:18:48.950Z,8.68
2023-01-29T08:23:51.284Z,8.03
2023-01-29T08:28:53.875Z,7.79
2023-01-29T08:33:55.725Z,7.57
2023-01-29T08:38:57.572Z,7.47
2023-01-29T08:44:06.139Z,7.61
2023-01-29T08:49:09.715Z,8.54
2023-01-29T08:54:11.545Z,9.42
2023-01-29T08:59:13.760Z,10.23
2023-01-29T09:04:15.797Z,10.70
2023-01-29T09:09:18.517Z,11.12
2023-01-29T09:14:20.686Z,11.45
2023-01-29T09:19:22.914Z,11.53
2023-01-29T09:24:24.816Z,11.26
2023-01-29T09:29:26.767Z,10.74
2023-01-29T09:34:28.589Z,10.23
2023-01-29T09:39:30.417Z,9.87
2023-01-29T09:44:53.107Z,9.91
2023-01-29T09:50:00.264Z,10.05
2023-01-29T09:55:27.560Z,10.05
2023-01-29T10:00:48.825Z,9.44
2023-01-29T10:06:23.139Z,8.94
2023-01-29T10:11:42.842Z,8.97
2023-01-29T10:17:14.753Z,9.47
2023-01-29T10:22:48.171Z,9.98
2023-01-29T10:27:59.684Z,10.48
2023-01-29T10:33:12.369Z,10.61
2023-01-29T10:38:35.567Z,10.89
2023-01-29T10:44:01.479Z,11.42
2023-01-29T10:49:07.188Z,11.95
2023-01-29T10:54:22.600Z,12.28
2023-01-29T10:59:37.075Z,12.66
2023-01-29T11:04:39.335Z,12.96
2023-01-29T11:09:54.909Z,13.33
2023-01-29T11:15:18.030Z,13.53
2023-01-29T11:20:28.165Z,13.91
2023-01-29T11:25:32.787Z,14.33
2023-01-29T11:30:38.676Z,14.60
2023-01-29T11:35:40.556Z,14.87
2023-01-29T11:40:47.930Z,15.22
2023-01-29T11:45:52.650Z,14.97
2023-01-29T11:51:00.639Z,14.47
2023-01-29T11:56:17.191Z,14.11
2023-01-29T12:01:31.176Z,14.03
2023-01-29T12:06:41.407Z,13.82
2023-01-29T12:11:43.491Z,13.77
2023-01-29T12:17:03.867Z,13.65
2023-01-29T12:22:44.447Z,13.92
2023-01-29T12:28:09.589Z,14.39
2023-01-29T12:33:36.893Z,14.62
2023-01-29T12:38:38.728Z,14.85
2023-01-29T12:43:48.061Z,15.04
2023-01-29T12:48:50.875Z,15.16
2023-01-29T12:54:22.066Z,15.25
2023-01-29T12:59:33.101Z,15.41
2023-01-29T13:04:47.160Z,15.56
2023-01-29T13:10:01.861Z,15.76
2023-01-29T13:15:35.935Z,15.70
2023-01-29T13:20:41.148Z,15.52
2023-01-29T13:25:43.672Z,15.51
2023-01-29T13:30:49.048Z,15.33
2023-01-29T13:35:59.400Z,15.07
2023-01-29T13:41:04.708Z,14.59
2023-01-29T13:46:17.850Z,14.18
2023-01-29T13:51:22.785Z,13.77
2023-01-29T13:56:33.767Z,13.85
2023-01-29T14:01:47.814Z,13.92
2023-01-29T14:07:04.537Z,14.10
2023-01-29T14:12:23.134Z,14.04
2023-01-29T14:17:27.002Z,14.01
2023-01-29T14:22:30.516Z,13.12
2023-01-29T14:27:33.841Z,12.79
2023-01-29T14:32:40.557Z,12.80
2023-01-29T14:37:47.447Z,12.54
2023-01-29T14:43:03.608Z,12.81
2023-01-29T14:48:24.248Z,12.91
2023-01-29T14:53:53.333Z,12.94
2023-01-29T14:59:02.954Z,12.96
2023-01-29T15:04:19.016Z,12.89
2023-01-29T15:09:36.635Z,12.80
2023-01-29T15:14:52.199Z,12.71
2023-01-29T15:19:55.056Z,12.59
2023-01-29T15:25:13.927Z,12.55
2023-01-29T15:30:20.303Z,12.50
2023-01-29T15:35:38.923Z,12.49
2023-01-29T15:40:58.070Z,12.33
2023-01-29T15:46:08.935Z,12.11
2023-01-29T15:51:19.787Z,11.98
2023-01-29T15:56:35.020Z,11.88
2023-01-29T16:01:37.055Z,11.78
2023-01-29T16:06:41.879Z,11.68
2023-01-29T16:11:44.428Z,11.69
2023-01-29T16:16:48.672Z,11.69
2023-01-29T16:22:04.146Z,11.67
2023-01-29T16:27:14.043Z,11.58
2023-01-29T16:32:16.457Z,11.44
2023-01-29T16:37:21.915Z,11.34
2023-01-29T16:42:35.879Z,11.26
2023-01-29T16:47:41.800Z,11.14
2023-01-29T16:53:11.825Z,10.96
2023-01-29T16:58:24.426Z,10.81
2023-01-29T17:03:28.579Z,10.76
2023-01-29T17:08:33.597Z,10.69
2023-01-29T17:13:40.006Z,10.64
2023-01-29T17:18:41.907Z,10.58
2023-01-29T17:23:44.021Z,10.55
2023-01-29T17:28:48.888Z,10.52
2023-01-29T17:33:53.626Z,10.49
2023-01-29T17:38:55.505Z,10.46
2023-01-29T17:43:57.412Z,10.35
2023-01-29T17:48:59.300Z,10.28
2023-01-29T17:54:01.192Z,10.24
2023-01-29T17:59:19.509Z,10.17
2023-01-29T18:04:21.453Z,10.11
2023-01-29T18:09:25.668Z,10.07
2023-01-29T18:14:27.589Z,9.98
2023-01-29T18:19:31.270Z,9.94
2023-01-29T18:24:58.623Z,9.91
2023-01-29T18:30:00.451Z,9.93
2023-01-29T18:35:03.257Z,9.94
2023-01-29T18:40:06.001Z,9.93
2023-01-29T18:45:08.666Z,9.93
2023-01-29T18:50:12.179Z,9.92
2023-01-29T18:55:14.215Z,9.89
2023-01-29T19:00:19.565Z,9.82
2023-01-29T19:05:23.788Z,9.73
2023-01-29T19:10:26.415Z,9.64
2023-01-29T19:15:28.414Z,9.57
2023-01-29T19:20:31.644Z,9.51
2023-01-29T19:25:37.025Z,9.45
2023-01-29T19:30:38.939Z,9.39
2023-01-29T19:35:45.269Z,9.32
2023-01-29T19:40:48.437Z,9.22
2023-01-29T19:45:58.289Z,9.13
2023-01-29T19:51:04.337Z,9.02
2023-01-29T19:56:08.675Z,8.92
2023-01-29T20:01:19.187Z,8.85
2023-01-29T20:06:25.148Z,8.80
2023-01-29T20:11:27.033Z,8.73
2023-01-29T20:16:29.100Z,8.69
2023-01-29T20:21:31.037Z,8.65
2023-01-29T20:26:33.434Z,8.60
2023-01-29T20:31:35.485Z,8.58
2023-01-29T20:36:37.454Z,8.60
2023-01-29T20:41:44.018Z,8.55
2023-01-29T20:46:46.402Z,8.55
2023-01-29T20:51:48.204Z,8.52
2023-01-29T20:56:50.078Z,8.49
2023-01-29T21:01:52.135Z,8.45
2023-01-29T21:06:54.038Z,8.47
2023-01-29T21:11:55.994Z,8.45
2023-01-29T21:16:57.897Z,8.43
2023-01-29T21:21:59.825Z,8.42
2023-01-29T21:27:03.264Z,8.38
2023-01-29T21:32:06.068Z,8.34
2023-01-29T21:37:09.379Z,8.32
2023-01-29T21:42:30.349Z,8.25
2023-01-29T21:47:35.777Z,8.20
2023-01-29T21:52:38.154Z,8.16
2023-01-29T21:57:40.257Z,8.15
2023-01-29T22:02:42.165Z,8.13
2023-01-29T22:07:44.442Z,8.09
2023-01-29T22:12:46.766Z,8.05
2023-01-29T22:17:49.111Z,8.01
2023-01-29T22:22:50.922Z,7.96
2023-01-29T22:27:52.825Z,7.89
2023-01-29T22:32:57.220Z,7.86
2023-01-29T22:37:59.850Z,7.82
2023-01-29T22:43:01.502Z,7.76
2023-01-29T22:48:03.449Z,7.75
2023-01-29T22:53:05.635Z,7.70
2023-01-29T22:58:07.442Z,7.64
2023-01-29T23:03:12.306Z,7.59
2023-01-29T23:08:14.776Z,7.57
2023-01-29T23:13:21.702Z,7.57
2023-01-29T23:18:23.862Z,7.55
2023-01-29T23:23:29.577Z,7.54
2023-01-29T23:28:32.867Z,7.52
2023-01-29T23:33:38.305Z,7.52
2023-01-29T23:38:41.458Z,7.51
2023-01-29T23:43:53.075Z,7.53
2023-01-29T23:48:54.873Z,7.50
2023-01-29T23:53:56.783Z,7.49
2023-01-29T23:58:59.114Z,7.47
